| time (UTC) | temp C | wind direction | speed KPH | gust KPH | rain 1hr cm | rain 24hr cm | rain mn cm | humidity % | barometer mb |
| 20260831092552 | 21 | 209 | 6.4 | 8.0 | 0.00 | 0.00 | 0.00 | 98 | 1004.3 |
| 20260831092048 | 21 | 202 | 4.8 | 9.7 | 0.00 | 0.00 | 0.00 | 98 | 1004.2 |
| 20260831091548 | 21 | 202 | 9.7 | 12.9 | 0.00 | 0.00 | 0.00 | 98 | 1004.5 |
| 20260831091043 | 21 | 216 | 8.0 | 9.7 | 0.00 | 0.00 | 0.00 | 98 | 1004.3 |
| 20260831090538 | 21 | 211 | 4.8 | 11.3 | 0.00 | 0.00 | 0.00 | 98 | 1004.2 |
| 20260831090029 | 21 | 214 | 8.0 | 11.3 | 0.00 | 0.00 | 0.00 | 99 | 1004.4 |
| 20260831085524 | 21 | 204 | 4.8 | 9.7 | 0.00 | 0.00 | 0.00 | 99 | 1004.3 |
| 20260831085019 | 21 | 196 | 4.8 | 12.9 | 0.00 | 0.00 | 0.00 | 99 | 1004.3 |
| 20260831084515 | 21 | 209 | 6.4 | 11.3 | 0.00 | 0.00 | 0.00 | 99 | 1004.4 |
| 20260831084011 | 21 | 209 | 8.0 | 11.3 | 0.00 | 0.00 | 0.00 | 99 | 1004.3 |
| 20260831083506 | 21 | 203 | 6.4 | 9.7 | 0.00 | 0.00 | 0.00 | 99 | 1004.3 |
| 20260831083006 | 21 | 202 | 4.8 | 11.3 | 0.00 | 0.00 | 0.00 | 99 | 1004.3 |
| 20260831082500 | 21 | 194 | 4.8 | 9.7 | 0.00 | 0.00 | 0.00 | 99 | 1004.3 |
| 20260831081954 | 21 | 198 | 8.0 | 12.9 | 0.00 | 0.00 | 0.00 | 99 | 1004.3 |
| 20260831081450 | 21 | 190 | 4.8 | 8.0 | 0.00 | 0.00 | 0.00 | 99 | 1004.0 |
| 20260831080946 | 21 | 204 | 6.4 | 9.7 | 0.00 | 0.00 | 0.00 | 99 | 1004.3 |
| 20260831080440 | 21 | 215 | 8.0 | 11.3 | 0.00 | 0.00 | 0.00 | 99 | 1004.2 |
| 20260831075935 | 21 | 209 | 8.0 | 8.0 | 0.00 | 0.00 | 0.00 | 99 | 1004.6 |
| 20260831075431 | 21 | 198 | 4.8 | 9.7 | 0.00 | 0.00 | 0.00 | 98 | 1004.3 |
| 20260831074927 | 21 | 189 | 4.8 | 8.0 | 0.00 | 0.00 | 0.00 | 98 | 1004.5 |
| 20260831074421 | 21 | 192 | 4.8 | 6.4 | 0.00 | 0.00 | 0.00 | 98 | 1004.5 |
| 20260831073915 | 21 | 216 | 3.2 | 11.3 | 0.00 | 0.00 | 0.00 | 98 | 1004.5 |
| 20260831073415 | 21 | 212 | 4.8 | 11.3 | 0.00 | 0.00 | 0.00 | 98 | 1004.6 |
| 20260831072910 | 21 | 217 | 4.8 | 11.3 | 0.00 | 0.00 | 0.00 | 98 | 1004.5 |
| 20260831072405 | 21 | 205 | 3.2 | 11.3 | 0.00 | 0.00 | 0.00 | 97 | 1004.4 |
| 20260831071902 | 21 | 213 | 6.4 | 12.9 | 0.00 | 0.00 | 0.00 | 97 | 1004.5 |
| 20260831071400 | 21 | 194 | 4.8 | 9.7 | 0.00 | 0.00 | 0.00 | 97 | 1004.6 |
| 20260831070855 | 21 | 211 | 8.0 | 9.7 | 0.00 | 0.00 | 0.00 | 97 | 1004.5 |
| 20260831070354 | 22 | 221 | 4.8 | 8.0 | 0.00 | 0.00 | 0.00 | 96 | 1004.7 |
| 20260831065854 | 22 | 208 | 4.8 | 11.3 | 0.00 | 0.00 | 0.00 | 96 | 1004.9 |
| 20260831065351 | 22 | 205 | 4.8 | 8.0 | 0.00 | 0.00 | 0.00 | 96 | 1004.7 |
| 20260831064847 | 22 | 215 | 6.4 | 8.0 | 0.00 | 0.00 | 0.00 | 96 | 1004.8 |
| 20260831064342 | 22 | 183 | 4.8 | 11.3 | 0.00 | 0.00 | 0.00 | 95 | 1004.8 |
| 20260831063837 | 22 | 208 | 9.7 | 11.3 | 0.00 | 0.00 | 0.00 | 95 | 1004.9 |
| 20260831063332 | 22 | 205 | 6.4 | 9.7 | 0.00 | 0.00 | 0.00 | 95 | 1004.9 |
| 20260831062827 | 22 | 215 | 12.9 | 12.9 | 0.00 | 0.00 | 0.00 | 95 | 1004.9 |
| 20260831062322 | 22 | 187 | 4.8 | 8.0 | 0.00 | 0.00 | 0.00 | 95 | 1005.1 |
| 20260831061820 | 22 | 193 | 3.2 | 11.3 | 0.00 | 0.00 | 0.00 | 94 | 1005.0 |
| 20260831061314 | 22 | 188 | 4.8 | 8.0 | 0.00 | 0.00 | 0.00 | 94 | 1004.9 |
| 20260831060810 | 22 | 205 | 4.8 | 9.7 | 0.00 | 0.00 | 0.00 | 94 | 1005.4 |
| 20260831060305 | 22 | 217 | 9.7 | 11.3 | 0.00 | 0.00 | 0.00 | 94 | 1005.1 |
| 20260831055804 | 22 | 204 | 6.4 | 11.3 | 0.00 | 0.00 | 0.00 | 94 | 1005.0 |
| 20260831055259 | 22 | 195 | 4.8 | 11.3 | 0.00 | 0.00 | 0.00 | 93 | 1005.4 |
| 20260831054754 | 22 | 191 | 4.8 | 8.0 | 0.00 | 0.00 | 0.00 | 93 | 1005.4 |
| 20260831054249 | 22 | 215 | 4.8 | 9.7 | 0.00 | 0.00 | 0.00 | 93 | 1005.4 |
| 20260831053748 | 22 | 194 | 4.8 | 8.0 | 0.00 | 0.00 | 0.00 | 93 | 1005.5 |
| 20260831053247 | 22 | 207 | 4.8 | 9.7 | 0.00 | 0.00 | 0.00 | 93 | 1005.5 |
| 20260831052742 | 22 | 186 | 6.4 | 9.7 | 0.00 | 0.00 | 0.00 | 93 | 1005.4 |
| 20260831052241 | 22 | 205 | 4.8 | 8.0 | 0.00 | 0.00 | 0.00 | 93 | 1005.7 |
| 20260831051738 | 22 | 216 | 6.4 | 6.4 | 0.00 | 0.00 | 0.00 | 93 | 1005.7 |
| 20260831051232 | 22 | 191 | 3.2 | 6.4 | 0.00 | 0.00 | 0.00 | 92 | 1005.7 |
| 20260831050727 | 22 | 207 | 4.8 | 11.3 | 0.00 | 0.00 | 0.00 | 92 | 1005.7 |
| 20260831050226 | 22 | 200 | 4.8 | 11.3 | 0.00 | 0.00 | 0.00 | 92 | 1005.6 |
| 20260831045721 | 22 | 197 | 4.8 | 11.3 | 0.00 | 0.00 | 0.00 | 92 | 1005.5 |
| 20260831045215 | 22 | 204 | 6.4 | 9.7 | 0.00 | 0.00 | 0.00 | 92 | 1005.7 |
| 20260831044710 | 22 | 197 | 1.6 | 9.7 | 0.00 | 0.00 | 0.00 | 92 | 1005.7 |
| 20260831044205 | 22 | 205 | 6.4 | 11.3 | 0.00 | 0.00 | 0.00 | 92 | 1005.7 |
| 20260831043701 | 22 | 214 | 8.0 | 9.7 | 0.00 | 0.00 | 0.00 | 92 | 1005.6 |
| 20260831043156 | 22 | 202 | 3.2 | 11.3 | 0.00 | 0.00 | 0.00 | 92 | 1005.8 |
| 20260831042655 | 22 | 208 | 4.8 | 9.7 | 0.00 | 0.00 | 0.00 | 92 | 1005.8 |
| 20260831042150 | 22 | 200 | 8.0 | 8.0 | 0.00 | 0.00 | 0.00 | 92 | 1005.7 |
| 20260831041645 | 22 | 207 | 6.4 | 12.9 | 0.00 | 0.00 | 0.00 | 92 | 1005.8 |
| 20260831041144 | 22 | 184 | 3.2 | 8.0 | 0.00 | 0.00 | 0.00 | 91 | 1005.8 |
| 20260831040640 | 22 | 211 | 8.0 | 11.3 | 0.00 | 0.00 | 0.00 | 91 | 1005.8 |
| 20260831040138 | 22 | 203 | 12.9 | 17.7 | 0.00 | 0.00 | 0.00 | 91 | 1005.5 |
| 20260831035637 | 22 | 203 | 6.4 | 9.7 | 0.00 | 0.00 | 0.00 | 91 | 1005.6 |
| 20260831035132 | 22 | 207 | 8.0 | 16.1 | 0.00 | 0.00 | 0.00 | 91 | 1005.6 |
| 20260831034631 | 22 | 206 | 6.4 | 9.7 | 0.00 | 0.00 | 0.00 | 91 | 1005.7 |
| 20260831034126 | 22 | 204 | 6.4 | 9.7 | 0.00 | 0.00 | 0.00 | 91 | 1005.8 |
| 20260831033622 | 22 | 204 | 4.8 | 11.3 | 0.00 | 0.00 | 0.00 | 90 | 1006.0 |
| 20260831033117 | 22 | 189 | 4.8 | 8.0 | 0.00 | 0.00 | 0.00 | 90 | 1006.2 |
| 20260831032616 | 22 | 161 | 3.2 | 11.3 | 0.00 | 0.00 | 0.00 | 90 | 1006.1 |
| 20260831032112 | 22 | 180 | 4.8 | 8.0 | 0.00 | 0.00 | 0.00 | 90 | 1006.3 |
| 20260831031607 | 22 | 211 | 4.8 | 6.4 | 0.00 | 0.00 | 0.00 | 91 | 1006.3 |
| 20260831031106 | 22 | 166 | 0.0 | 6.4 | 0.00 | 0.00 | 0.00 | 91 | 1006.4 |
| 20260831030605 | 22 | 191 | 1.6 | 4.8 | 0.00 | 0.00 | 0.00 | 91 | 1006.4 |
| 20260831030104 | 22 | 160 | 0.0 | 4.8 | 0.00 | 0.00 | 0.00 | 90 | 1006.4 |
| 20260831025603 | 22 | 182 | 1.6 | 6.4 | 0.00 | 0.00 | 0.00 | 90 | 1006.2 |
| 20260831025058 | 22 | 185 | 3.2 | 8.0 | 0.00 | 0.00 | 0.00 | 89 | 1006.3 |
| 20260831024554 | 22 | 185 | 3.2 | 6.4 | 0.00 | 0.00 | 0.00 | 89 | 1006.5 |
| 20260831024053 | 22 | 183 | 4.8 | 9.7 | 0.00 | 0.00 | 0.00 | 89 | 1006.6 |
| 20260831023551 | 22 | 207 | 6.4 | 8.0 | 0.00 | 0.00 | 0.00 | 89 | 1006.5 |
| 20260831023050 | 22 | 203 | 3.2 | 11.3 | 0.00 | 0.00 | 0.00 | 89 | 1006.4 |
| 20260831022545 | 22 | 176 | 3.2 | 8.0 | 0.00 | 0.00 | 0.00 | 89 | 1006.5 |
| 20260831022041 | 23 | 192 | 4.8 | 11.3 | 0.00 | 0.00 | 0.00 | 88 | 1006.6 |
| 20260831021538 | 23 | 216 | 3.2 | 19.3 | 0.00 | 0.00 | 0.00 | 88 | 1006.6 |
| 20260831021030 | 23 | 219 | 8.0 | 14.5 | 0.00 | 0.00 | 0.00 | 88 | 1006.5 |
| 20260831020525 | 23 | 219 | 6.4 | 12.9 | 0.00 | 0.00 | 0.00 | 88 | 1006.5 |
| 20260831020019 | 23 | 212 | 4.8 | 11.3 | 0.00 | 0.00 | 0.00 | 88 | 1006.3 |
| 20260831015514 | 23 | 172 | 6.4 | 14.5 | 0.00 | 0.00 | 0.00 | 88 | 1006.5 |
| 20260831015004 | 23 | 207 | 11.3 | 11.3 | 0.00 | 0.00 | 0.00 | 88 | 1006.3 |
| 20260831014458 | 23 | 209 | 8.0 | 12.9 | 0.00 | 0.00 | 0.00 | 88 | 1006.4 |
| 20260831013954 | 23 | 202 | 6.4 | 12.9 | 0.00 | 0.00 | 0.00 | 88 | 1006.3 |
| 20260831013450 | 23 | 204 | 6.4 | 20.9 | 0.00 | 0.00 | 0.00 | 88 | 1006.1 |
| 20260831012949 | 23 | 219 | 9.7 | 17.7 | 0.00 | 0.00 | 0.00 | 88 | 1006.2 |
| 20260831012444 | 23 | 176 | 6.4 | 11.3 | 0.00 | 0.00 | 0.00 | 88 | 1006.2 |
| 20260831011938 | 23 | 206 | 8.0 | 12.9 | 0.00 | 0.00 | 0.00 | 88 | 1006.1 |
| 20260831011427 | 23 | 199 | 4.8 | 14.5 | 0.00 | 0.00 | 0.00 | 87 | 1006.2 |
| 20260831010923 | 23 | 194 | 6.4 | 14.5 | 0.00 | 0.00 | 0.00 | 86 | 1005.9 |
| 20260831010418 | 23 | 195 | 8.0 | 9.7 | 0.00 | 0.00 | 0.00 | 86 | 1006.0 |
| 20260831005914 | 23 | 164 | 3.2 | 9.7 | 0.00 | 0.00 | 0.00 | 85 | 1006.0 |
| 20260831005409 | 23 | 202 | 4.8 | 9.7 | 0.00 | 0.00 | 0.00 | 85 | 1005.9 |
| 20260831004903 | 23 | 186 | 3.2 | 8.0 | 0.00 | 0.00 | 0.00 | 85 | 1005.9 |
| 20260831004400 | 23 | 213 | 6.4 | 11.3 | 0.00 | 0.00 | 0.00 | 84 | 1006.0 |
| 20260831003855 | 24 | 191 | 4.8 | 11.3 | 0.00 | 0.00 | 0.00 | 83 | 1006.2 |
| 20260831003351 | 24 | 193 | 4.8 | 14.5 | 0.00 | 0.00 | 0.00 | 82 | 1006.0 |
| 20260831002851 | 25 | 207 | 6.4 | 9.7 | 0.00 | 0.00 | 0.00 | 81 | 1006.0 |
| 20260831002350 | 25 | 224 | 9.7 | 12.9 | 0.00 | 0.00 | 0.00 | 80 | 1006.3 |
| 20260831001845 | 25 | 217 | 9.7 | 14.5 | 0.00 | 0.00 | 0.00 | 79 | 1006.0 |
| 20260831001340 | 25 | 208 | 11.3 | 14.5 | 0.00 | 0.00 | 0.00 | 78 | 1006.0 |
| 20260831000838 | 25 | 191 | 3.2 | 12.9 | 0.00 | 0.00 | 0.00 | 78 | 1006.0 |
| 20260831000340 | 25 | 193 | 4.8 | 11.3 | 0.00 | 0.00 | 0.00 | 77 | 1006.0 |
| 20260830235835 | 25 | 246 | 6.4 | 8.0 | 0.00 | 0.00 | 0.00 | 77 | 1006.0 |
| 20260830235330 | 26 | 230 | 8.0 | 14.5 | 0.00 | 0.00 | 0.00 | 75 | 1006.0 |
| 20260830234826 | 26 | 219 | 12.9 | 14.5 | 0.00 | 0.00 | 0.00 | 76 | 1006.2 |
| 20260830234322 | 26 | 224 | 8.0 | 14.5 | 0.00 | 0.00 | 0.00 | 76 | 1005.9 |
| 20260830233817 | 26 | 213 | 8.0 | 12.9 | 0.00 | 0.00 | 0.00 | 75 | 1006.0 |
| 20260830233313 | 26 | 205 | 8.0 | 12.9 | 0.00 | 0.00 | 0.00 | 76 | 1005.8 |
| 20260830232808 | 26 | 212 | 11.3 | 14.5 | 0.00 | 0.00 | 0.00 | 75 | 1005.9 |
| 20260830232306 | 26 | 198 | 8.0 | 11.3 | 0.00 | 0.00 | 0.00 | 75 | 1005.8 |
| 20260830231800 | 26 | 211 | 4.8 | 8.0 | 0.00 | 0.00 | 0.00 | 74 | 1005.9 |
| 20260830231255 | 26 | 216 | 6.4 | 17.7 | 0.00 | 0.00 | 0.00 | 72 | 1005.8 |
| 20260830230749 | 27 | 229 | 8.0 | 17.7 | 0.00 | 0.00 | 0.00 | 71 | 1005.7 |
| 20260830230245 | 27 | 240 | 8.0 | 19.3 | 0.00 | 0.00 | 0.00 | 71 | 1005.6 |
| 20260830225744 | 27 | 228 | 9.7 | 17.7 | 0.00 | 0.00 | 0.00 | 70 | 1005.5 |
| 20260830225239 | 27 | 197 | 17.7 | 17.7 | 0.00 | 0.00 | 0.00 | 71 | 1005.7 |
| 20260830224738 | 27 | 197 | 9.7 | 19.3 | 0.00 | 0.00 | 0.00 | 71 | 1005.7 |
| 20260830224234 | 27 | 203 | 9.7 | 16.1 | 0.00 | 0.00 | 0.00 | 73 | 1005.2 |
| 20260830223730 | 27 | 200 | 11.3 | 19.3 | 0.00 | 0.00 | 0.00 | 72 | 1005.2 |
| 20260830223225 | 28 | 234 | 6.4 | 12.9 | 0.00 | 0.00 | 0.00 | 71 | 1005.5 |
| 20260830222715 | 28 | 223 | 11.3 | 16.1 | 0.00 | 0.00 | 0.00 | 70 | 1005.2 |
| 20260830222210 | 28 | 210 | 6.4 | 17.7 | 0.00 | 0.00 | 0.00 | 71 | 1005.4 |
| 20260830221706 | 27 | 222 | 11.3 | 19.3 | 0.00 | 0.00 | 0.00 | 71 | 1005.2 |
| 20260830221202 | 27 | 231 | 4.8 | 22.5 | 0.00 | 0.00 | 0.00 | 71 | 1005.4 |
| 20260830220657 | 27 | 206 | 11.3 | 16.1 | 0.00 | 0.00 | 0.00 | 72 | 1005.5 |
| 20260830220156 | 27 | 222 | 17.7 | 22.5 | 0.00 | 0.00 | 0.00 | 72 | 1005.4 |
| 20260830215655 | 27 | 209 | 12.9 | 14.5 | 0.00 | 0.00 | 0.00 | 75 | 1005.5 |
| 20260830215149 | 28 | 202 | 11.3 | 14.5 | 0.00 | 0.00 | 0.00 | 75 | 1005.0 |
| 20260830214645 | 28 | 215 | 3.2 | 14.5 | 0.00 | 0.00 | 0.00 | 75 | 1005.0 |
| 20260830214139 | 28 | 251 | 6.4 | 11.3 | 0.00 | 0.00 | 0.00 | 73 | 1005.2 |
| 20260830213638 | 28 | 218 | 6.4 | 12.9 | 0.00 | 0.00 | 0.00 | 74 | 1004.9 |
| 20260830213134 | 27 | 229 | 1.6 | 11.3 | 0.00 | 0.00 | 0.00 | 76 | 1005.1 |
| 20260830212630 | 28 | 224 | 6.4 | 17.7 | 0.00 | 0.00 | 0.00 | 74 | 1005.2 |
| 20260830212125 | 28 | 222 | 4.8 | 11.3 | 0.00 | 0.00 | 0.00 | 74 | 1004.9 |
| 20260830211619 | 28 | 194 | 6.4 | 12.9 | 0.00 | 0.00 | 0.00 | 75 | 1005.0 |
| 20260830211119 | 28 | 180 | 4.8 | 8.0 | 0.00 | 0.00 | 0.00 | 75 | 1004.9 |
| 20260830210615 | 28 | 204 | 9.7 | 12.9 | 0.00 | 0.00 | 0.00 | 75 | 1005.2 |
| 20260830210114 | 28 | 194 | 8.0 | 17.7 | 0.00 | 0.00 | 0.00 | 74 | 1005.5 |
| 20260830205611 | 29 | 195 | 4.8 | 9.7 | 0.00 | 0.00 | 0.00 | 71 | 1004.8 |
| 20260830205107 | 28 | 191 | 6.4 | 11.3 | 0.00 | 0.00 | 0.00 | 73 | 1005.0 |
| 20260830204606 | 28 | 215 | 4.8 | 11.3 | 0.00 | 0.00 | 0.00 | 72 | 1005.1 |
| 20260830204105 | 28 | 184 | 12.9 | 19.3 | 0.00 | 0.00 | 0.00 | 71 | 1005.2 |
| 20260830203602 | 30 | 190 | 6.4 | 14.5 | 0.00 | 0.00 | 0.00 | 70 | 1005.2 |
| 20260830203056 | 28 | 204 | 8.0 | 19.3 | 0.00 | 0.00 | 0.00 | 71 | 1005.2 |
| 20260830202556 | 29 | 165 | 4.8 | 11.3 | 0.00 | 0.00 | 0.00 | 74 | 1005.2 |
| 20260830202052 | 28 | 180 | 4.8 | 16.1 | 0.00 | 0.00 | 0.00 | 76 | 1005.1 |
| 20260830201551 | 28 | 206 | 12.9 | 25.7 | 0.00 | 0.00 | 0.00 | 75 | 1005.5 |
| 20260830201046 | 28 | 178 | 3.2 | 12.9 | 0.00 | 0.00 | 0.00 | 75 | 1005.4 |
| 20260830200542 | 28 | 221 | 9.7 | 12.9 | 0.00 | 0.00 | 0.00 | 76 | 1005.5 |
| 20260830200040 | 28 | 194 | 6.4 | 17.7 | 0.00 | 0.00 | 0.00 | 77 | 1005.7 |
| 20260830195536 | 28 | 203 | 6.4 | 11.3 | 0.00 | 0.00 | 0.00 | 77 | 1005.6 |
| 20260830195034 | 28 | 179 | 6.4 | 19.3 | 0.00 | 0.00 | 0.00 | 76 | 1005.5 |
| 20260830194533 | 28 | 206 | 9.7 | 25.7 | 0.00 | 0.00 | 0.00 | 76 | 1005.4 |
| 20260830194033 | 28 | 213 | 16.1 | 20.9 | 0.00 | 0.00 | 0.00 | 74 | 1005.6 |
| 20260830193532 | 28 | 190 | 3.2 | 17.7 | 0.00 | 0.00 | 0.00 | 77 | 1005.5 |
| 20260830193028 | 28 | 195 | 8.0 | 14.5 | 0.00 | 0.00 | 0.00 | 76 | 1005.6 |
| 20260830192524 | 28 | 206 | 6.4 | 14.5 | 0.00 | 0.00 | 0.00 | 76 | 1005.8 |
| 20260830192024 | 28 | 216 | 14.5 | 20.9 | 0.00 | 0.00 | 0.00 | 74 | 1005.4 |
| 20260830191519 | 28 | 209 | 6.4 | 12.9 | 0.00 | 0.00 | 0.00 | 75 | 1005.4 |
| 20260830191019 | 28 | 210 | 14.5 | 14.5 | 0.00 | 0.00 | 0.00 | 75 | 1005.5 |
| 20260830190515 | 28 | 184 | 3.2 | 11.3 | 0.00 | 0.00 | 0.00 | 76 | 1005.4 |
| 20260830190010 | 28 | 201 | 6.4 | 12.9 | 0.00 | 0.00 | 0.00 | 77 | 1005.4 |
| 20260830185504 | 28 | 188 | 6.4 | 16.1 | 0.00 | 0.00 | 0.00 | 76 | 1005.2 |
| 20260830184959 | 28 | 175 | 3.2 | 8.0 | 0.00 | 0.00 | 0.00 | 75 | 1005.2 |
| 20260830184458 | 28 | 129 | 0.0 | 6.4 | 0.00 | 0.00 | 0.00 | 74 | 1005.4 |
| 20260830183948 | 28 | 150 | 0.0 | 12.9 | 0.00 | 0.00 | 0.00 | 74 | 1005.0 |
| 20260830183447 | 28 | 198 | 6.4 | 9.7 | 0.00 | 0.00 | 0.00 | 74 | 1005.2 |
| 20260830182943 | 28 | 170 | 4.8 | 11.3 | 0.00 | 0.00 | 0.00 | 74 | 1005.2 |
| 20260830182438 | 27 | 124 | 3.2 | 14.5 | 0.00 | 0.00 | 0.00 | 75 | 1004.8 |
| 20260830181934 | 28 | 152 | 4.8 | 9.7 | 0.00 | 0.00 | 0.00 | 74 | 1004.9 |
| 20260830181430 | 27 | 85 | 3.2 | 8.0 | 0.00 | 0.00 | 0.00 | 74 | 1005.1 |
| 20260830180924 | 28 | 145 | 0.0 | 6.4 | 0.00 | 0.00 | 0.00 | 72 | 1005.2 |
| 20260830180424 | 27 | 121 | 1.6 | 6.4 | 0.00 | 0.00 | 0.00 | 75 | 1005.4 |
| 20260830175923 | 27 | 216 | 4.8 | 8.0 | 0.00 | 0.00 | 0.00 | 75 | 1005.5 |
| 20260830175417 | 27 | 147 | 0.0 | 3.2 | 0.00 | 0.00 | 0.00 | 76 | 1005.4 |
| 20260830174912 | 26 | 234 | 3.2 | 9.7 | 0.00 | 0.00 | 0.00 | 79 | 1005.8 |
| 20260830174408 | 26 | 184 | 4.8 | 12.9 | 0.00 | 0.00 | 0.00 | 80 | 1005.7 |
| 20260830173903 | 26 | 204 | 3.2 | 8.0 | 0.00 | 0.00 | 0.00 | 82 | 1005.9 |
| 20260830173358 | 26 | 185 | 3.2 | 9.7 | 0.00 | 0.00 | 0.00 | 83 | 1006.1 |
| 20260830172854 | 26 | 177 | 4.8 | 12.9 | 0.00 | 0.00 | 0.00 | 84 | 1006.1 |
| 20260830172350 | 26 | 214 | 14.5 | 14.5 | 0.00 | 0.00 | 0.00 | 84 | 1006.5 |
| 20260830171845 | 25 | 187 | 4.8 | 6.4 | 0.00 | 0.00 | 0.00 | 85 | 1006.4 |
| 20260830171341 | 25 | 193 | 4.8 | 6.4 | 0.00 | 0.00 | 0.00 | 85 | 1006.7 |
| 20260830170836 | 25 | 183 | 4.8 | 6.4 | 0.00 | 0.00 | 0.00 | 85 | 1006.6 |
| 20260830170335 | 25 | 105 | 0.0 | 8.0 | 0.00 | 0.00 | 0.00 | 85 | 1006.6 |
| 20260830165829 | 25 | 156 | 4.8 | 8.0 | 0.00 | 0.00 | 0.00 | 84 | 1006.7 |
| 20260830165325 | 25 | 185 | 4.8 | 8.0 | 0.00 | 0.00 | 0.00 | 84 | 1006.5 |
| 20260830164821 | 25 | 216 | 8.0 | 12.9 | 0.00 | 0.00 | 0.00 | 83 | 1006.8 |
| 20260830164317 | 25 | 197 | 8.0 | 11.3 | 0.00 | 0.00 | 0.00 | 84 | 1006.5 |
| 20260830163814 | 25 | 193 | 3.2 | 8.0 | 0.00 | 0.00 | 0.00 | 84 | 1006.6 |
| 20260830163308 | 26 | 180 | 4.8 | 8.0 | 0.00 | 0.00 | 0.00 | 83 | 1006.4 |
| 20260830162803 | 26 | 194 | 4.8 | 8.0 | 0.00 | 0.00 | 0.00 | 81 | 1006.2 |
| 20260830162259 | 26 | 213 | 1.6 | 8.0 | 0.00 | 0.00 | 0.00 | 81 | 1005.9 |
| 20260830161754 | 26 | 168 | 3.2 | 8.0 | 0.00 | 0.00 | 0.00 | 80 | 1005.8 |
| 20260830161253 | 26 | 214 | 6.4 | 11.3 | 0.00 | 0.00 | 0.00 | 82 | 1005.9 |
| 20260830160749 | 26 | 169 | 4.8 | 9.7 | 0.00 | 0.00 | 0.00 | 80 | 1005.7 |
| 20260830160249 | 26 | 149 | 3.2 | 9.7 | 0.00 | 0.00 | 0.00 | 81 | 1005.6 |
| 20260830155745 | 26 | 182 | 4.8 | 6.4 | 0.00 | 0.00 | 0.00 | 82 | 1005.8 |
| 20260830155242 | 26 | 87 | 3.2 | 8.0 | 0.00 | 0.00 | 0.00 | 81 | 1005.8 |
| 20260830154741 | 26 | 74 | 0.0 | 9.7 | 0.00 | 0.00 | 0.00 | 82 | 1005.5 |
| 20260830154237 | 25 | 157 | 1.6 | 4.8 | 0.00 | 0.00 | 0.00 | 84 | 1005.5 |
| 20260830153734 | 25 | 195 | 4.8 | 11.3 | 0.00 | 0.00 | 0.00 | 85 | 1005.5 |
| 20260830153229 | 25 | 210 | 3.2 | 4.8 | 0.00 | 0.00 | 0.00 | 85 | 1005.1 |
| 20260830152727 | 25 | 141 | 0.0 | 4.8 | 0.00 | 0.00 | 0.00 | 85 | 1005.1 |
| 20260830152222 | 25 | 204 | 3.2 | 6.4 | 0.00 | 0.00 | 0.00 | 84 | 1005.4 |
| 20260830151717 | 24 | 200 | 4.8 | 8.0 | 0.00 | 0.00 | 0.00 | 85 | 1005.0 |
| 20260830151216 | 25 | 95 | 3.2 | 9.7 | 0.00 | 0.00 | 0.00 | 84 | 1005.1 |
| 20260830150711 | 25 | 205 | 6.4 | 11.3 | 0.00 | 0.00 | 0.00 | 85 | 1005.1 |
| 20260830150205 | 24 | 198 | 4.8 | 6.4 | 0.00 | 0.00 | 0.00 | 86 | 1005.5 |
| 20260830145700 | 24 | 212 | 3.2 | 6.4 | 0.00 | 0.00 | 0.00 | 85 | 1005.2 |
| 20260830145155 | 24 | 149 | 3.2 | 4.8 | 0.00 | 0.00 | 0.00 | 85 | 1005.2 |
| 20260830144650 | 25 | 172 | 0.0 | 3.2 | 0.00 | 0.00 | 0.00 | 85 | 1005.4 |
| 20260830144146 | 24 | 132 | 3.2 | 6.4 | 0.00 | 0.00 | 0.00 | 85 | 1005.0 |
| 20260830143642 | 24 | 155 | 4.8 | 6.4 | 0.00 | 0.00 | 0.00 | 84 | 1005.1 |
| 20260830143140 | 24 | 188 | 4.8 | 6.4 | 0.00 | 0.00 | 0.00 | 87 | 1005.1 |
| 20260830142636 | 24 | 189 | 4.8 | 4.8 | 0.00 | 0.00 | 0.00 | 86 | 1005.1 |
| 20260830142135 | 24 | 194 | 4.8 | 4.8 | 0.00 | 0.00 | 0.00 | 86 | 1005.2 |
| 20260830141631 | 23 | 195 | 4.8 | 6.4 | 0.00 | 0.00 | 0.00 | 87 | 1005.0 |
| 20260830141126 | 23 | 216 | 1.6 | 4.8 | 0.00 | 0.00 | 0.00 | 88 | 1005.2 |
| 20260830140622 | 22 | 212 | 3.2 | 8.0 | 0.00 | 0.00 | 0.00 | 89 | 1005.4 |
| 20260830140121 | 23 | 114 | 3.2 | 6.4 | 0.00 | 0.00 | 0.00 | 91 | 1005.4 |
| 20260830135615 | 22 | 180 | 1.6 | 4.8 | 0.00 | 0.00 | 0.00 | 91 | 1005.1 |
| 20260830135110 | 22 | 223 | 0.0 | 6.4 | 0.00 | 0.00 | 0.00 | 93 | 1005.0 |
| 20260830134606 | 21 | 210 | 1.6 | 4.8 | 0.00 | 0.00 | 0.00 | 94 | 1005.1 |
| 20260830134101 | 21 | 168 | 3.2 | 6.4 | 0.00 | 0.00 | 0.00 | 95 | 1005.2 |
| 20260830133557 | 21 | 212 | 8.0 | 9.7 | 0.00 | 0.00 | 0.00 | 94 | 1005.2 |
| 20260830133051 | 21 | 223 | 4.8 | 6.4 | 0.00 | 0.00 | 0.00 | 95 | 1005.1 |
| 20260830132548 | 21 | 160 | 4.8 | 8.0 | 0.00 | 0.00 | 0.00 | 95 | 1005.0 |
| 20260830132043 | 21 | 197 | 3.2 | 4.8 | 0.00 | 0.00 | 0.00 | 95 | 1005.4 |
| 20260830131542 | 21 | 173 | 1.6 | 8.0 | 0.00 | 0.00 | 0.00 | 95 | 1005.1 |
| 20260830131036 | 21 | 210 | 0.0 | 6.4 | 0.00 | 0.00 | 0.00 | 95 | 1005.1 |
| 20260830130531 | 21 | 193 | 3.2 | 6.4 | 0.00 | 0.00 | 0.00 | 96 | 1005.0 |
| 20260830130027 | 20 | 263 | 1.6 | 4.8 | 0.00 | 0.00 | 0.00 | 96 | 1005.2 |
| 20260830125521 | 20 | 213 | 4.8 | 6.4 | 0.00 | 0.00 | 0.00 | 97 | 1005.5 |
| 20260830125020 | 20 | 183 | 4.8 | 6.4 | 0.00 | 0.00 | 0.00 | 97 | 1005.4 |
| 20260830124515 | 20 | 102 | 1.6 | 3.2 | 0.00 | 0.00 | 0.00 | 97 | 1005.5 |
| 20260830124010 | 20 | 135 | 0.0 | 4.8 | 0.00 | 0.00 | 0.00 | 97 | 1005.6 |
| 20260830123507 | 20 | 127 | 0.0 | 4.8 | 0.00 | 0.00 | 0.00 | 97 | 1005.2 |
| 20260830123002 | 20 | 181 | 4.8 | 4.8 | 0.00 | 0.00 | 0.00 | 97 | 1005.2 |
| 20260830122459 | 20 | 204 | 3.2 | 6.4 | 0.00 | 0.00 | 0.00 | 98 | 1005.2 |
| 20260830121954 | 20 | 221 | 9.7 | 9.7 | 0.00 | 0.00 | 0.00 | 98 | 1005.2 |
| 20260830121449 | 20 | 196 | 4.8 | 9.7 | 0.00 | 0.00 | 0.00 | 99 | 1004.8 |
| 20260830120943 | 20 | 206 | 6.4 | 8.0 | 0.00 | 0.00 | 0.00 | 99 | 1004.8 |
| 20260830120439 | 20 | 214 | 9.7 | 11.3 | 0.00 | 0.00 | 0.00 | 99 | 1004.9 |
| 20260830115935 | 20 | 187 | 3.2 | 8.0 | 0.00 | 0.00 | 0.00 | 99 | 1004.7 |
| 20260830115431 | 20 | 195 | 6.4 | 11.3 | 0.00 | 0.00 | 0.00 | 99 | 1004.7 |
| 20260830114926 | 20 | 211 | 3.2 | 6.4 | 0.00 | 0.00 | 0.00 | 99 | 1004.9 |
| 20260830114423 | 20 | 199 | 3.2 | 8.0 | 0.00 | 0.00 | 0.00 | 99 | 1004.5 |
| 20260830113922 | 20 | 195 | 3.2 | 8.0 | 0.00 | 0.00 | 0.00 | 99 | 1005.1 |
| 20260830113417 | 20 | 192 | 3.2 | 11.3 | 0.00 | 0.00 | 0.00 | 99 | 1004.8 |
| 20260830112913 | 20 | 196 | 3.2 | 8.0 | 0.00 | 0.00 | 0.00 | 99 | 1005.1 |
| 20260830112409 | 20 | 206 | 4.8 | 8.0 | 0.00 | 0.00 | 0.00 | 99 | 1005.1 |
| 20260830111905 | 20 | 213 | 11.3 | 14.5 | 0.00 | 0.00 | 0.00 | 99 | 1005.0 |
| 20260830111400 | 20 | 218 | 4.8 | 6.4 | 0.00 | 0.00 | 0.00 | 99 | 1004.7 |
| 20260830110855 | 20 | 192 | 3.2 | 8.0 | 0.00 | 0.00 | 0.00 | 99 | 1004.8 |
| 20260830110351 | 20 | 154 | 3.2 | 6.4 | 0.00 | 0.00 | 0.00 | 98 | 1005.1 |
| 20260830105850 | 20 | 208 | 4.8 | 8.0 | 0.00 | 0.00 | 0.00 | 98 | 1005.4 |
| 20260830105347 | 20 | 196 | 3.2 | 9.7 | 0.00 | 0.00 | 0.00 | 98 | 1004.9 |
| 20260830104842 | 20 | 222 | 4.8 | 8.0 | 0.00 | 0.00 | 0.00 | 98 | 1005.0 |
| 20260830104339 | 20 | 215 | 9.7 | 11.3 | 0.00 | 0.00 | 0.00 | 98 | 1005.0 |
| 20260830103838 | 20 | 196 | 6.4 | 14.5 | 0.00 | 0.00 | 0.00 | 98 | 1005.0 |
| 20260830103334 | 20 | 205 | 6.4 | 12.9 | 0.00 | 0.00 | 0.00 | 98 | 1005.0 |
| 20260830102832 | 20 | 219 | 6.4 | 11.3 | 0.00 | 0.00 | 0.00 | 98 | 1005.0 |
| 20260830102328 | 20 | 210 | 6.4 | 11.3 | 0.00 | 0.00 | 0.00 | 98 | 1005.0 |
| 20260830101824 | 20 | 212 | 9.7 | 14.5 | 0.00 | 0.00 | 0.00 | 98 | 1004.9 |
| 20260830101319 | 20 | 208 | 8.0 | 16.1 | 0.00 | 0.00 | 0.00 | 98 | 1004.8 |
| 20260830100818 | 20 | 212 | 8.0 | 12.9 | 0.00 | 0.00 | 0.00 | 98 | 1005.1 |
| 20260830100313 | 20 | 199 | 6.4 | 16.1 | 0.00 | 0.00 | 0.00 | 98 | 1004.8 |
| 20260830095812 | 20 | 213 | 11.3 | 14.5 | 0.00 | 0.00 | 0.00 | 98 | 1004.9 |
| 20260830095308 | 20 | 198 | 4.8 | 14.5 | 0.00 | 0.00 | 0.00 | 98 | 1004.7 |
| 20260830094804 | 20 | 202 | 8.0 | 14.5 | 0.00 | 0.00 | 0.00 | 97 | 1004.9 |
| 20260830094300 | 20 | 203 | 8.0 | 16.1 | 0.00 | 0.00 | 0.00 | 97 | 1005.1 |
| 20260830093755 | 20 | 200 | 9.7 | 12.9 | 0.00 | 0.00 | 0.00 | 98 | 1005.1 |
| 20260830093250 | 20 | 221 | 12.9 | 12.9 | 0.00 | 0.00 | 0.00 | 98 | 1005.1 |
| 20260830092744 | 20 | 203 | 6.4 | 14.5 | 0.00 | 0.00 | 0.00 | 98 | 1005.0 |